createdAt,value
2018-07-25T00:01:12.042Z,55.17
2018-07-25T00:04:36.768Z,56.57
2018-07-25T00:08:01.496Z,56.12
2018-07-25T00:11:26.222Z,56.00
2018-07-25T00:14:50.968Z,55.31
2018-07-25T00:18:15.689Z,55.01
2018-07-25T00:21:40.397Z,56.60
2018-07-25T00:25:05.117Z,56.47
2018-07-25T00:28:29.901Z,56.70
2018-07-25T00:31:54.603Z,56.53
2018-07-25T00:35:19.333Z,56.39
2018-07-25T00:38:44.109Z,57.33
2018-07-25T00:42:08.934Z,56.64
2018-07-25T00:45:33.783Z,57.06
2018-07-25T00:48:58.468Z,57.12
2018-07-25T00:52:24.169Z,57.24
2018-07-25T00:55:48.790Z,57.06
2018-07-25T00:59:13.476Z,57.37
2018-07-25T01:02:38.132Z,58.25
2018-07-25T01:06:02.911Z,57.70
2018-07-25T01:09:27.656Z,58.05
2018-07-25T01:12:52.416Z,57.76
2018-07-25T01:16:17.098Z,58.95
2018-07-25T01:19:41.838Z,58.87
2018-07-25T01:23:06.781Z,58.05
2018-07-25T01:26:31.444Z,57.51
2018-07-25T01:29:56.136Z,58.18
2018-07-25T01:33:20.864Z,59.80
2018-07-25T01:36:45.244Z,59.02
2018-07-25T01:40:10.099Z,58.16
2018-07-25T01:45:03.844Z,56.68
2018-07-25T01:48:28.584Z,59.30
2018-07-25T01:51:53.262Z,58.84
2018-07-25T01:55:18.044Z,59.99
2018-07-25T01:58:42.732Z,58.88
2018-07-25T02:02:07.513Z,58.75
2018-07-25T02:05:32.176Z,59.38
2018-07-25T02:08:57.268Z,59.60
2018-07-25T02:12:21.630Z,59.03
2018-07-25T02:15:46.880Z,58.50
2018-07-25T02:19:11.623Z,58.86
2018-07-25T02:22:36.306Z,59.88
2018-07-25T02:26:00.966Z,61.04
2018-07-25T02:29:25.294Z,59.05
2018-07-25T02:32:49.994Z,59.07
2018-07-25T02:36:14.682Z,60.85
2018-07-25T02:39:39.412Z,60.87
2018-07-25T02:43:04.111Z,60.48
2018-07-25T02:46:28.801Z,60.44
2018-07-25T02:49:53.615Z,61.74
2018-07-25T02:53:18.259Z,60.68
2018-07-25T02:56:46.349Z,60.47
2018-07-25T03:00:11.002Z,60.66
2018-07-25T03:03:35.654Z,60.77
2018-07-25T03:07:00.380Z,61.91
2018-07-25T03:10:25.049Z,61.94
2018-07-25T03:13:49.772Z,61.60
2018-07-25T03:17:14.578Z,62.98
2018-07-25T03:20:39.278Z,62.05
2018-07-25T03:24:27.180Z,63.41
2018-07-25T03:27:51.884Z,62.72
2018-07-25T03:31:16.701Z,60.95
2018-07-25T03:34:41.313Z,64.18
2018-07-25T03:38:06.307Z,63.20
2018-07-25T03:41:31.007Z,62.77
2018-07-25T03:44:55.657Z,64.65
2018-07-25T03:48:19.989Z,64.29
2018-07-25T03:51:44.727Z,64.39
2018-07-25T03:55:09.406Z,63.62
2018-07-25T03:58:34.175Z,63.82
2018-07-25T04:01:59.083Z,64.33
2018-07-25T04:05:23.350Z,64.00
2018-07-25T04:08:48.282Z,65.00
2018-07-25T04:12:13.018Z,64.11
2018-07-25T04:15:37.332Z,64.24
2018-07-25T04:19:02.043Z,65.82
2018-07-25T04:22:26.775Z,64.88
2018-07-25T04:25:51.465Z,64.82
2018-07-25T04:29:16.123Z,64.52
2018-07-25T04:32:41.624Z,64.91
2018-07-25T04:36:06.451Z,65.46
2018-07-25T04:39:31.152Z,62.60
2018-07-25T04:42:55.851Z,63.79
2018-07-25T04:46:20.653Z,63.04
2018-07-25T04:49:45.297Z,65.32
2018-07-25T04:53:09.940Z,66.19
2018-07-25T04:56:34.648Z,66.00
2018-07-25T04:59:59.396Z,65.49
2018-07-25T05:03:24.124Z,65.65
2018-07-25T05:06:48.891Z,65.05
2018-07-25T05:10:13.642Z,65.71
2018-07-25T05:13:38.402Z,64.37
2018-07-25T05:17:02.691Z,65.74
2018-07-25T05:20:27.356Z,64.36
2018-07-25T05:23:51.779Z,65.83
2018-07-25T05:27:16.464Z,66.62
2018-07-25T05:30:41.181Z,66.95
2018-07-25T05:34:06.047Z,66.87
2018-07-25T05:37:30.814Z,66.11
2018-07-25T05:40:55.694Z,67.80
2018-07-25T05:44:20.440Z,67.32
2018-07-25T05:47:45.117Z,67.51
2018-07-25T05:51:09.882Z,67.64
2018-07-25T05:54:34.630Z,67.39
2018-07-25T05:57:59.308Z,65.10
2018-07-25T06:01:25.314Z,66.46
2018-07-25T06:04:49.990Z,66.65
2018-07-25T06:08:14.738Z,66.28
2018-07-25T06:11:39.785Z,66.26
2018-07-25T06:15:04.967Z,66.10
2018-07-25T06:18:29.851Z,64.91
2018-07-25T06:21:54.599Z,62.82
2018-07-25T06:25:19.333Z,63.75
2018-07-25T06:28:44.165Z,63.57
2018-07-25T06:32:08.837Z,64.19
2018-07-25T06:35:33.531Z,63.15
2018-07-25T06:39:00.730Z,63.18
2018-07-25T06:42:28.393Z,62.96
2018-07-25T06:45:53.681Z,62.46
2018-07-25T06:49:18.713Z,62.82
2018-07-25T06:52:44.330Z,61.58
2018-07-25T06:56:09.392Z,61.61
2018-07-25T06:59:34.625Z,61.65
2018-07-25T07:03:00.689Z,60.04
2018-07-25T07:06:26.606Z,60.79
2018-07-25T07:09:52.930Z,60.91
2018-07-25T07:13:18.849Z,60.41
2018-07-25T07:16:44.857Z,59.97
2018-07-25T07:20:10.204Z,59.12
2018-07-25T07:23:34.903Z,58.59
2018-07-25T07:27:00.668Z,57.90
2018-07-25T07:30:26.027Z,58.04
2018-07-25T07:33:51.395Z,57.23
2018-07-25T07:37:16.862Z,56.60
2018-07-25T07:40:42.148Z,57.31
2018-07-25T07:44:06.807Z,56.39
2018-07-25T07:47:31.359Z,56.56
2018-07-25T07:50:56.209Z,55.21
2018-07-25T07:54:20.997Z,55.33
2018-07-25T07:57:45.724Z,54.55
2018-07-25T08:01:10.383Z,55.39
2018-07-25T08:04:35.119Z,54.35
2018-07-25T08:08:00.027Z,53.04
2018-07-25T08:11:24.786Z,53.45
2018-07-25T08:14:49.428Z,52.58
2018-07-25T08:18:14.214Z,52.83
2018-07-25T08:21:38.945Z,52.42
2018-07-25T08:25:03.597Z,52.34
2018-07-25T08:28:28.419Z,52.06
2018-07-25T08:31:52.790Z,51.88
2018-07-25T08:35:17.479Z,51.41
2018-07-25T08:38:42.893Z,52.10
2018-07-25T08:42:07.571Z,51.12
2018-07-25T08:45:32.343Z,49.58
2018-07-25T08:48:57.101Z,49.24
2018-07-25T08:52:22.068Z,49.41
2018-07-25T08:55:46.808Z,48.79
2018-07-25T08:59:11.538Z,47.36
2018-07-25T09:02:36.315Z,47.74
2018-07-25T09:06:01.128Z,48.26
2018-07-25T09:09:25.830Z,47.52
2018-07-25T09:12:50.289Z,45.52
2018-07-25T09:16:14.939Z,44.69
2018-07-25T09:19:39.766Z,45.12
2018-07-25T09:23:04.478Z,43.63
2018-07-25T09:26:29.288Z,43.70
2018-07-25T09:29:53.900Z,44.90
2018-07-25T09:33:18.635Z,43.26
2018-07-25T09:36:43.340Z,44.36
2018-07-25T09:40:08.178Z,40.93
2018-07-25T09:43:32.950Z,42.59
2018-07-25T09:46:57.705Z,40.01
2018-07-25T09:50:22.333Z,41.00
2018-07-25T09:53:47.030Z,40.45
2018-07-25T09:57:11.856Z,40.61
2018-07-25T10:00:41.839Z,40.22
2018-07-25T10:04:06.643Z,37.07
2018-07-25T10:07:31.368Z,35.84
2018-07-25T10:10:56.096Z,36.02
2018-07-25T10:14:20.801Z,37.58
2018-07-25T10:17:45.505Z,33.31
2018-07-25T10:21:10.311Z,33.11
2018-07-25T10:24:34.709Z,34.78
2018-07-25T10:27:59.632Z,34.68
2018-07-25T10:31:24.365Z,34.62
2018-07-25T10:34:49.019Z,34.13
2018-07-25T10:38:13.721Z,34.99
2018-07-25T10:41:38.445Z,37.41
2018-07-25T10:45:03.125Z,33.96
2018-07-25T10:48:27.781Z,31.73
2018-07-25T10:51:52.512Z,31.78
2018-07-25T10:55:17.187Z,31.94
2018-07-25T10:58:41.879Z,30.70
2018-07-25T11:02:08.208Z,31.37
2018-07-25T11:05:32.847Z,32.54
2018-07-25T11:08:57.571Z,31.68
2018-07-25T11:12:22.410Z,32.20
2018-07-25T11:15:47.093Z,30.75
2018-07-25T11:19:11.741Z,31.21
2018-07-25T11:22:36.073Z,29.24
2018-07-25T11:26:00.701Z,29.12
2018-07-25T11:29:25.370Z,27.32
2018-07-25T11:32:50.128Z,27.58
2018-07-25T11:36:14.845Z,28.34
2018-07-25T11:39:39.479Z,29.43
2018-07-25T11:43:04.401Z,29.20
2018-07-25T11:46:29.094Z,27.87
2018-07-25T11:49:53.807Z,26.80
2018-07-25T11:53:19.635Z,26.71
2018-07-25T11:56:44.320Z,26.88
2018-07-25T12:00:09.151Z,27.22
2018-07-25T12:03:33.950Z,26.44
2018-07-25T12:10:23.415Z,25.59
2018-07-25T12:13:48.073Z,27.73
2018-07-25T12:17:12.871Z,26.64
2018-07-25T12:20:37.688Z,27.63
2018-07-25T12:24:02.492Z,28.13
2018-07-25T12:27:27.187Z,29.67
2018-07-25T12:30:51.881Z,28.13
2018-07-25T12:34:16.604Z,26.04
2018-07-25T12:37:40.972Z,28.84
2018-07-25T12:41:05.736Z,26.64
2018-07-25T12:44:30.501Z,26.99
2018-07-25T12:47:55.292Z,24.08
2018-07-25T12:51:20.051Z,24.94
2018-07-25T12:54:45.276Z,24.95
2018-07-25T12:58:10.007Z,24.52
2018-07-25T13:01:34.789Z,25.67
2018-07-25T13:04:59.485Z,28.25
2018-07-25T13:08:24.334Z,24.57
2018-07-25T13:11:49.041Z,24.50
2018-07-25T13:15:13.762Z,24.71
2018-07-25T13:18:38.753Z,23.27
2018-07-25T13:22:03.576Z,21.76
2018-07-25T13:25:28.481Z,22.28
2018-07-25T13:28:53.334Z,20.86
2018-07-25T13:32:17.907Z,20.86
2018-07-25T13:35:42.639Z,20.44
2018-07-25T13:39:09.190Z,23.12
2018-07-25T13:42:33.924Z,22.53
2018-07-25T13:45:58.822Z,21.27
2018-07-25T13:49:24.281Z,20.53
2018-07-25T13:52:49.027Z,19.54
2018-07-25T13:56:13.692Z,21.73
2018-07-25T13:59:38.407Z,21.57
2018-07-25T14:03:03.267Z,21.89
2018-07-25T14:06:27.970Z,22.50
2018-07-25T14:09:52.686Z,21.60
2018-07-25T14:13:17.385Z,21.62
2018-07-25T14:16:42.164Z,21.29
2018-07-25T14:20:06.853Z,20.81
2018-07-25T14:23:31.655Z,20.64
2018-07-25T14:26:56.369Z,21.22
2018-07-25T14:30:21.268Z,21.49
2018-07-25T14:33:45.552Z,21.01
2018-07-25T14:37:10.265Z,20.73
2018-07-25T14:40:34.979Z,20.22
2018-07-25T14:43:59.656Z,20.76
2018-07-25T14:47:24.466Z,20.14
2018-07-25T14:50:49.163Z,20.04
2018-07-25T14:54:13.940Z,21.71
2018-07-25T14:57:38.683Z,18.75
2018-07-25T15:01:03.486Z,19.71
2018-07-25T15:04:28.124Z,19.75
2018-07-25T15:07:52.833Z,19.66
2018-07-25T15:11:17.595Z,21.36
2018-07-25T15:14:42.259Z,18.96
2018-07-25T15:18:07.059Z,20.86
2018-07-25T15:21:31.425Z,18.89
2018-07-25T15:24:56.110Z,20.61
2018-07-25T15:28:20.916Z,17.70
2018-07-25T15:31:45.555Z,19.77
2018-07-25T15:35:10.856Z,18.08
2018-07-25T15:38:35.657Z,18.18
2018-07-25T15:42:00.433Z,18.34
2018-07-25T15:45:25.223Z,19.21
2018-07-25T15:48:50.028Z,18.87
2018-07-25T15:52:14.819Z,18.91
2018-07-25T15:55:39.528Z,19.25
2018-07-25T15:59:04.637Z,16.79
2018-07-25T16:02:29.390Z,18.43
2018-07-25T16:05:53.790Z,17.02
2018-07-25T16:09:18.473Z,15.99
2018-07-25T16:12:43.317Z,19.17
2018-07-25T16:16:08.577Z,19.35
2018-07-25T16:19:33.319Z,19.43
2018-07-25T16:22:58.053Z,18.70
2018-07-25T16:26:22.799Z,20.85
2018-07-25T16:29:47.482Z,19.05
2018-07-25T16:33:12.128Z,19.88
2018-07-25T16:36:36.871Z,18.79
2018-07-25T16:40:01.500Z,18.89
2018-07-25T16:43:26.378Z,19.15
2018-07-25T16:46:51.187Z,20.28
2018-07-25T16:50:15.987Z,19.74
2018-07-25T16:53:40.707Z,20.08
2018-07-25T16:57:05.676Z,20.75
2018-07-25T17:00:30.523Z,22.20
2018-07-25T17:03:55.229Z,21.08
2018-07-25T17:07:20.060Z,20.49
2018-07-25T17:10:44.852Z,21.48
2018-07-25T17:14:09.658Z,19.83
2018-07-25T17:17:34.390Z,21.17
2018-07-25T17:20:59.129Z,21.34
2018-07-25T17:24:24.051Z,23.71
2018-07-25T17:27:48.780Z,22.64
2018-07-25T17:31:13.532Z,23.69
2018-07-25T17:34:38.235Z,23.97
2018-07-25T17:38:02.969Z,25.06
2018-07-25T17:41:27.838Z,23.87
2018-07-25T17:44:52.429Z,28.07
2018-07-25T17:48:17.135Z,26.77
2018-07-25T17:51:41.823Z,26.48
2018-07-25T17:55:06.671Z,26.21
2018-07-25T17:58:31.477Z,26.68
2018-07-25T18:01:56.298Z,27.63
2018-07-25T18:05:21.058Z,27.45
2018-07-25T18:08:45.881Z,28.61
2018-07-25T18:12:10.770Z,29.14
2018-07-25T18:15:35.561Z,27.94
2018-07-25T18:19:00.240Z,30.61
2018-07-25T18:22:24.917Z,30.54
2018-07-25T18:25:49.627Z,29.71
2018-07-25T18:29:14.379Z,29.01
2018-07-25T18:32:39.102Z,29.04
2018-07-25T18:36:04.751Z,30.09
2018-07-25T18:39:29.618Z,30.62
2018-07-25T18:42:54.308Z,30.78
2018-07-25T18:46:19.501Z,31.51
2018-07-25T18:49:44.339Z,32.25
2018-07-25T18:53:09.048Z,32.19
2018-07-25T18:56:33.748Z,33.34
2018-07-25T18:59:58.534Z,33.18
2018-07-25T19:03:23.342Z,33.24
2018-07-25T19:06:47.717Z,34.06
2018-07-25T19:10:12.355Z,34.09
2018-07-25T19:13:37.233Z,34.34
2018-07-25T19:17:02.185Z,35.00
2018-07-25T19:20:27.298Z,35.25
2018-07-25T19:23:52.055Z,34.95
2018-07-25T19:27:16.940Z,34.23
2018-07-25T19:30:41.648Z,35.55
2018-07-25T19:34:06.271Z,35.66
2018-07-25T19:37:30.941Z,36.33
2018-07-25T19:40:55.943Z,36.22
2018-07-25T19:44:20.896Z,37.37
2018-07-25T19:47:45.265Z,37.44
2018-07-25T19:51:10.259Z,36.11
2018-07-25T19:54:35.292Z,37.00
2018-07-25T19:58:00.051Z,38.06
2018-07-25T20:01:24.974Z,38.46
2018-07-25T20:04:49.666Z,38.57
2018-07-25T20:08:14.388Z,40.03
2018-07-25T20:11:39.557Z,39.30
2018-07-25T20:15:09.990Z,40.37
2018-07-25T20:18:34.977Z,40.03
2018-07-25T20:21:59.682Z,39.33
2018-07-25T20:25:24.294Z,41.03
2018-07-25T20:28:48.980Z,39.68
2018-07-25T20:32:13.717Z,39.29
2018-07-25T20:35:38.228Z,40.55
2018-07-25T20:39:03.204Z,40.85
2018-07-25T20:42:28.424Z,42.10
2018-07-25T20:45:53.166Z,40.89
2018-07-25T20:49:17.978Z,41.25
2018-07-25T20:52:43.131Z,42.55
2018-07-25T20:56:07.862Z,43.04
2018-07-25T20:59:32.950Z,42.55
2018-07-25T21:02:57.936Z,43.22
2018-07-25T21:06:22.737Z,43.01
2018-07-25T21:09:47.422Z,43.10
2018-07-25T21:13:12.226Z,43.94
2018-07-25T21:16:36.656Z,44.06
2018-07-25T21:20:00.223Z,44.01
2018-07-25T21:23:24.893Z,45.12
2018-07-25T21:26:49.604Z,45.37
2018-07-25T21:30:14.312Z,45.25
2018-07-25T21:33:38.918Z,45.50
2018-07-25T21:37:03.701Z,45.87
2018-07-25T21:40:28.079Z,45.58
2018-07-25T21:43:52.786Z,46.29
2018-07-25T21:47:17.190Z,46.86
2018-07-25T21:50:41.900Z,46.74
2018-07-25T21:54:06.453Z,47.25
2018-07-25T21:57:31.107Z,46.23
2018-07-25T22:01:00.659Z,47.49
2018-07-25T22:04:25.368Z,47.29
2018-07-25T22:07:49.287Z,48.22
2018-07-25T22:11:13.183Z,48.29
2018-07-25T22:14:37.168Z,47.97
2018-07-25T22:18:01.875Z,49.14
2018-07-25T22:21:26.668Z,49.68
2018-07-25T22:24:51.427Z,49.13
2018-07-25T22:28:15.321Z,49.19
2018-07-25T22:31:40.022Z,49.42
2018-07-25T22:35:04.850Z,49.77
2018-07-25T22:38:29.527Z,50.02
2018-07-25T22:41:54.285Z,50.75
2018-07-25T22:45:19.027Z,50.33
2018-07-25T22:48:43.669Z,50.29
2018-07-25T22:52:08.368Z,51.38
2018-07-25T22:55:33.062Z,50.43
2018-07-25T22:58:57.760Z,51.55
2018-07-25T23:02:22.455Z,50.38
2018-07-25T23:05:47.158Z,50.56
2018-07-25T23:09:12.389Z,51.17
2018-07-25T23:12:37.074Z,50.24
2018-07-25T23:16:01.861Z,49.29
2018-07-25T23:19:26.619Z,50.82
2018-07-25T23:23:01.538Z,50.90
2018-07-25T23:26:26.307Z,50.40
2018-07-25T23:29:50.987Z,51.44
2018-07-25T23:33:15.699Z,51.02
2018-07-25T23:36:41.660Z,51.76
2018-07-25T23:40:06.365Z,52.31
2018-07-25T23:43:30.222Z,52.80
2018-07-25T23:46:54.873Z,52.47
2018-07-25T23:50:19.242Z,52.72
2018-07-25T23:53:44.110Z,53.55
2018-07-25T23:57:08.514Z,52.89
